This is the latest recevied weather packets stored in our database for station/object YF9UAG-15. If no packets are shown the sender has not sent any weather packets the latest 1 day(s).
| Time | Temp. | Humidity | Pressure | Rain* | Wind** | Luminosity | Snow |
|---|---|---|---|---|---|---|---|
| 1778053711 | 32.22° C | 94% | 1004 hPa | - | - | - | - |
| 1778053590 | 31.67° C | 95% | 1004 hPa | - | - | - | - |
| 1778052864 | 32.22° C | 94% | 1003.6 hPa | - | - | - | - |
| 1778052744 | 31.67° C | 92% | 1003.6 hPa | - | - | - | - |
| 1778052623 | 32.22° C | 91% | 1003.4 hPa | - | - | - | - |
| 1778052502 | 32.22° C | 91% | 1003.4 hPa | - | - | - | - |
| 1778052381 | 32.22° C | 89% | 1003.3 hPa | - | - | - | - |
| 1778052260 | 32.22° C | 88% | 1003.3 hPa | - | - | - | - |
| 1778052139 | 32.22° C | 86% | 1003.3 hPa | - | - | - | - |
| 1778052018 | 32.22° C | 84% | 1003.3 hPa | - | - | - | - |
| 1778051898 | 32.78° C | 80% | 1003.3 hPa | - | - | - | - |
| 1778051776 | 32.78° C | 77% | 1003.3 hPa | - | - | - | - |
| 1778051535 | 32.78° C | 77% | 1003.3 hPa | - | - | - | - |
| 1778051292 | 32.78° C | 80% | 1003.3 hPa | - | - | - | - |
| 1778050567 | 33.33° C | 77% | 1002.9 hPa | - | - | - | - |
| 1778050446 | 33.33° C | 78% | 1002.9 hPa | - | - | - | - |
| 1778050325 | 33.33° C | 78% | 1002.9 hPa | - | - | - | - |
| 1778050204 | 33.89° C | 76% | 1002.8 hPa | - | - | - | - |
| 1778050083 | 33.33° C | 79% | 1002.8 hPa | - | - | - | - |
| 1778049962 | 33.33° C | 78% | 1002.8 hPa | - | - | - | - |
| 1778049841 | 33.33° C | 80% | 1002.8 hPa | - | - | - | - |
| 1778049720 | 33.33° C | 80% | 1002.8 hPa | - | - | - | - |
| 1778049599 | 33.89° C | 77% | 1002.8 hPa | - | - | - | - |
| 1778049478 | 34.44° C | 75% | 1002.8 hPa | - | - | - | - |
| 1778049236 | 33.33° C | 80% | 1002.8 hPa | - | - | - | - |
* Rain since midnight (hover to see other rain measurements)
** Current wind speed in m/s (hover to see current wind gust speed)